sensor_id;sensor_type;location;lat;lon;timestamp;pressure;altitude;pressure_sealevel;temperature;humidity
50518;BME280;37075;44.084;2.962;2023-12-20T00:02:27;98653.69;;;5.25;67.23
50518;BME280;37075;44.084;2.962;2023-12-20T00:05:13;98659.91;;;5.26;67.43
50518;BME280;37075;44.084;2.962;2023-12-20T00:07:59;98656.91;;;5.28;67.44
50518;BME280;37075;44.084;2.962;2023-12-20T00:10:46;98652.84;;;5.30;67.43
50518;BME280;37075;44.084;2.962;2023-12-20T00:13:32;98647.97;;;5.32;67.43
50518;BME280;37075;44.084;2.962;2023-12-20T00:16:20;98639.59;;;5.34;67.52
50518;BME280;37075;44.084;2.962;2023-12-20T00:19:06;98627.66;;;5.35;67.55
50518;BME280;37075;44.084;2.962;2023-12-20T00:21:52;98628.19;;;5.37;67.46
50518;BME280;37075;44.084;2.962;2023-12-20T00:24:38;98617.91;;;5.39;67.39
50518;BME280;37075;44.084;2.962;2023-12-20T00:27:23;98616.00;;;5.39;67.51
50518;BME280;37075;44.084;2.962;2023-12-20T00:30:10;98622.22;;;5.40;67.60
50518;BME280;37075;44.084;2.962;2023-12-20T00:32:57;98622.75;;;5.42;67.56
50518;BME280;37075;44.084;2.962;2023-12-20T00:35:44;98623.56;;;5.42;67.65
50518;BME280;37075;44.084;2.962;2023-12-20T00:38:29;98613.84;;;5.41;67.75
50518;BME280;37075;44.084;2.962;2023-12-20T00:41:15;98607.34;;;5.42;67.65
50518;BME280;37075;44.084;2.962;2023-12-20T00:44:01;98609.75;;;5.44;67.79
50518;BME280;37075;44.084;2.962;2023-12-20T00:46:47;98604.06;;;5.45;67.74
50518;BME280;37075;44.084;2.962;2023-12-20T00:49:34;98603.53;;;5.43;67.77
50518;BME280;37075;44.084;2.962;2023-12-20T00:52:20;98604.06;;;5.45;67.88
50518;BME280;37075;44.084;2.962;2023-12-20T00:55:07;98596.53;;;5.47;67.91
50518;BME280;37075;44.084;2.962;2023-12-20T00:57:53;98586.50;;;5.48;67.91
50518;BME280;37075;44.084;2.962;2023-12-20T01:00:38;98588.66;;;5.51;68.02
50518;BME280;37075;44.084;2.962;2023-12-20T01:03:26;98586.75;;;5.51;68.00
50518;BME280;37075;44.084;2.962;2023-12-20T01:06:13;98577.53;;;5.52;67.99
50518;BME280;37075;44.084;2.962;2023-12-20T01:09:00;98567.53;;;5.53;67.99
50518;BME280;37075;44.084;2.962;2023-12-20T01:11:47;98575.94;;;5.51;68.16
50518;BME280;37075;44.084;2.962;2023-12-20T01:14:33;98562.13;;;5.53;68.18
50518;BME280;37075;44.084;2.962;2023-12-20T01:17:19;98556.44;;;5.54;68.02
50518;BME280;37075;44.084;2.962;2023-12-20T01:20:06;98553.16;;;5.57;68.17
50518;BME280;37075;44.084;2.962;2023-12-20T01:22:54;98553.69;;;5.60;68.09
50518;BME280;37075;44.084;2.962;2023-12-20T01:25:40;98555.28;;;5.61;68.34
50518;BME280;37075;44.084;2.962;2023-12-20T01:28:26;98566.41;;;5.59;68.40
50518;BME280;37075;44.084;2.962;2023-12-20T01:31:12;98567.50;;;5.58;68.45
50518;BME280;37075;44.084;2.962;2023-12-20T01:33:58;98562.88;;;5.58;68.46
50518;BME280;37075;44.084;2.962;2023-12-20T01:36:44;98556.94;;;5.56;68.53
50518;BME280;37075;44.084;2.962;2023-12-20T01:39:32;98542.38;;;5.52;68.94
50518;BME280;37075;44.084;2.962;2023-12-20T01:42:18;98547.50;;;5.54;68.81
50518;BME280;37075;44.084;2.962;2023-12-20T01:45:05;98546.69;;;5.53;69.08
50518;BME280;37075;44.084;2.962;2023-12-20T01:47:51;98544.22;;;5.57;68.98
50518;BME280;37075;44.084;2.962;2023-12-20T01:50:37;98547.75;;;5.57;69.03
50518;BME280;37075;44.084;2.962;2023-12-20T01:53:25;98547.75;;;5.57;69.17
50518;BME280;37075;44.084;2.962;2023-12-20T01:56:13;98551.00;;;5.54;69.39
50518;BME280;37075;44.084;2.962;2023-12-20T01:59:00;98536.41;;;5.55;69.12
50518;BME280;37075;44.084;2.962;2023-12-20T02:01:47;98546.94;;;5.57;69.24
50518;BME280;37075;44.084;2.962;2023-12-20T02:04:33;98547.19;;;5.61;69.21
50518;BME280;37075;44.084;2.962;2023-12-20T02:07:20;98543.66;;;5.60;69.15
50518;BME280;37075;44.084;2.962;2023-12-20T02:10:07;98540.69;;;5.62;69.22
50518;BME280;37075;44.084;2.962;2023-12-20T02:12:55;98547.13;;;5.66;69.15
50518;BME280;37075;44.084;2.962;2023-12-20T02:15:41;98541.97;;;5.69;69.17
50518;BME280;37075;44.084;2.962;2023-12-20T02:18:28;98536.81;;;5.73;69.22
50518;BME280;37075;44.084;2.962;2023-12-20T02:21:14;98538.16;;;5.75;69.29
50518;BME280;37075;44.084;2.962;2023-12-20T02:24:02;98528.13;;;5.76;69.28
50518;BME280;37075;44.084;2.962;2023-12-20T02:26:48;98533.56;;;5.76;69.28
50518;BME280;37075;44.084;2.962;2023-12-20T02:29:35;98529.22;;;5.75;69.23
50518;BME280;37075;44.084;2.962;2023-12-20T02:32:22;98517.88;;;5.73;69.29
50518;BME280;37075;44.084;2.962;2023-12-20T02:35:10;98511.38;;;5.74;69.40
50518;BME280;37075;44.084;2.962;2023-12-20T02:37:56;98505.69;;;5.75;69.39
50518;BME280;37075;44.084;2.962;2023-12-20T02:40:43;98502.16;;;5.75;69.29
50518;BME280;37075;44.084;2.962;2023-12-20T02:43:29;98491.63;;;5.73;69.37
50518;BME280;37075;44.084;2.962;2023-12-20T02:46:16;98488.91;;;5.73;69.58
50518;BME280;37075;44.084;2.962;2023-12-20T02:49:02;98480.50;;;5.75;69.47
50518;BME280;37075;44.084;2.962;2023-12-20T02:51:48;98484.03;;;5.75;69.38
50518;BME280;37075;44.084;2.962;2023-12-20T02:54:34;98480.50;;;5.75;69.23
50518;BME280;37075;44.084;2.962;2023-12-20T02:57:21;98485.94;;;5.75;69.23
50518;BME280;37075;44.084;2.962;2023-12-20T03:00:08;98465.38;;;5.74;69.09
50518;BME280;37075;44.084;2.962;2023-12-20T03:02:54;98466.47;;;5.73;68.99
50518;BME280;37075;44.084;2.962;2023-12-20T03:05:40;98470.78;;;5.74;69.01
50518;BME280;37075;44.084;2.962;2023-12-20T03:08:26;98467.25;;;5.73;69.32
50518;BME280;37075;44.084;2.962;2023-12-20T03:11:11;98458.84;;;5.75;69.19
50518;BME280;37075;44.084;2.962;2023-12-20T03:13:59;98455.63;;;5.73;69.24
50518;BME280;37075;44.084;2.962;2023-12-20T03:16:47;98460.50;;;5.71;69.27
50518;BME280;37075;44.084;2.962;2023-12-20T03:19:33;98445.88;;;5.72;69.40
50518;BME280;37075;44.084;2.962;2023-12-20T03:22:19;98453.97;;;5.72;69.39
50518;BME280;37075;44.084;2.962;2023-12-20T03:25:05;98447.75;;;5.71;69.40
50518;BME280;37075;44.084;2.962;2023-12-20T03:27:52;98437.75;;;5.72;69.34
50518;BME280;37075;44.084;2.962;2023-12-20T03:30:39;98441.84;;;5.69;69.34
50518;BME280;37075;44.084;2.962;2023-12-20T03:33:25;98429.09;;;5.70;69.30
50518;BME280;37075;44.084;2.962;2023-12-20T03:36:11;98432.91;;;5.69;69.36
50518;BME280;37075;44.084;2.962;2023-12-20T03:38:57;98426.44;;;5.65;69.43
50518;BME280;37075;44.084;2.962;2023-12-20T03:41:43;98425.88;;;5.68;69.29
50518;BME280;37075;44.084;2.962;2023-12-20T03:44:29;98423.97;;;5.68;69.31
50518;BME280;37075;44.084;2.962;2023-12-20T03:47:16;98419.94;;;5.66;69.48
50518;BME280;37075;44.084;2.962;2023-12-20T03:50:02;98423.47;;;5.66;69.29
50518;BME280;37075;44.084;2.962;2023-12-20T03:52:48;98421.91;;;5.60;69.83
50518;BME280;37075;44.084;2.962;2023-12-20T03:55:34;98424.03;;;5.63;69.47
50518;BME280;37075;44.084;2.962;2023-12-20T03:58:20;98416.72;;;5.64;69.41
50518;BME280;37075;44.084;2.962;2023-12-20T04:01:09;98422.13;;;5.64;69.50
50518;BME280;37075;44.084;2.962;2023-12-20T04:03:57;98415.63;;;5.65;69.54
50518;BME280;37075;44.084;2.962;2023-12-20T04:06:43;98406.41;;;5.66;69.55
50518;BME280;37075;44.084;2.962;2023-12-20T04:09:29;98398.00;;;5.67;69.57
50518;BME280;37075;44.084;2.962;2023-12-20T04:12:15;98398.06;;;5.62;69.92
50518;BME280;37075;44.084;2.962;2023-12-20T04:15:01;98383.16;;;5.65;69.76
50518;BME280;37075;44.084;2.962;2023-12-20T04:17:48;98384.75;;;5.66;69.59
50518;BME280;37075;44.084;2.962;2023-12-20T04:20:36;98392.88;;;5.66;69.51
50518;BME280;37075;44.084;2.962;2023-12-20T04:23:22;98377.75;;;5.65;69.52
50518;BME280;37075;44.084;2.962;2023-12-20T04:26:08;98381.81;;;5.62;69.79
50518;BME280;37075;44.084;2.962;2023-12-20T04:28:54;98375.09;;;5.60;69.75
50518;BME280;37075;44.084;2.962;2023-12-20T04:31:40;98367.19;;;5.63;69.65
50518;BME280;37075;44.084;2.962;2023-12-20T04:34:26;98364.72;;;5.67;69.89
50518;BME280;37075;44.084;2.962;2023-12-20T04:37:13;98359.03;;;5.68;69.80
50518;BME280;37075;44.084;2.962;2023-12-20T04:39:59;98346.81;;;5.71;69.72
50518;BME280;37075;44.084;2.962;2023-12-20T04:42:47;98348.44;;;5.72;69.80
50518;BME280;37075;44.084;2.962;2023-12-20T04:45:33;98341.97;;;5.73;69.81
50518;BME280;37075;44.084;2.962;2023-12-20T04:48:19;98334.66;;;5.73;69.61
50518;BME280;37075;44.084;2.962;2023-12-20T04:51:05;98334.34;;;5.75;69.83
50518;BME280;37075;44.084;2.962;2023-12-20T04:53:52;98330.56;;;5.76;69.79
50518;BME280;37075;44.084;2.962;2023-12-20T04:56:38;98325.66;;;5.78;69.83
50518;BME280;37075;44.084;2.962;2023-12-20T04:59:24;98319.16;;;5.79;69.74
50518;BME280;37075;44.084;2.962;2023-12-20T05:02:10;98325.06;;;5.81;69.81
50518;BME280;37075;44.084;2.962;2023-12-20T05:04:56;98320.47;;;5.81;69.80
50518;BME280;37075;44.084;2.962;2023-12-20T05:07:42;98323.69;;;5.83;69.83
50518;BME280;37075;44.084;2.962;2023-12-20T05:10:29;98327.44;;;5.87;69.85
50518;BME280;37075;44.084;2.962;2023-12-20T05:13:15;98321.72;;;5.89;69.82
50518;BME280;37075;44.084;2.962;2023-12-20T05:16:01;98310.91;;;5.89;69.92
50518;BME280;37075;44.084;2.962;2023-12-20T05:18:48;98306.03;;;5.91;69.82
50518;BME280;37075;44.084;2.962;2023-12-20T05:21:37;98325.66;;;5.78;70.30
50518;BME280;37075;44.084;2.962;2023-12-20T05:24:23;98328.66;;;5.76;70.40
50518;BME280;37075;44.084;2.962;2023-12-20T05:27:10;98312.06;;;5.83;70.20
50518;BME280;37075;44.084;2.962;2023-12-20T05:29:57;98323.47;;;5.80;70.53
50518;BME280;37075;44.084;2.962;2023-12-20T05:32:43;98318.22;;;5.88;70.33
50518;BME280;37075;44.084;2.962;2023-12-20T05:35:28;98313.56;;;5.94;70.22
50518;BME280;37075;44.084;2.962;2023-12-20T05:38:14;98318.19;;;5.94;70.68
50518;BME280;37075;44.084;2.962;2023-12-20T05:41:01;98312.72;;;5.99;70.26
50518;BME280;37075;44.084;2.962;2023-12-20T05:43:49;98306.22;;;6.00;70.54
50518;BME280;37075;44.084;2.962;2023-12-20T05:46:35;98323.03;;;5.97;70.62
50518;BME280;37075;44.084;2.962;2023-12-20T05:49:21;98302.16;;;5.97;70.64
50518;BME280;37075;44.084;2.962;2023-12-20T05:52:07;98298.38;;;5.98;70.41
50518;BME280;37075;44.084;2.962;2023-12-20T05:54:53;98296.72;;;6.02;70.51
50518;BME280;37075;44.084;2.962;2023-12-20T05:57:40;98303.44;;;6.05;70.43
50518;BME280;37075;44.084;2.962;2023-12-20T06:00:29;98311.88;;;6.03;70.62
50518;BME280;37075;44.084;2.962;2023-12-20T06:03:15;98319.41;;;6.06;70.57
50518;BME280;37075;44.084;2.962;2023-12-20T06:06:05;98309.66;;;6.05;70.66
50518;BME280;37075;44.084;2.962;2023-12-20T06:08:51;98321.38;;;6.01;71.20
50518;BME280;37075;44.084;2.962;2023-12-20T06:11:37;98298.25;;;6.08;70.87
50518;BME280;37075;44.084;2.962;2023-12-20T06:14:24;98319.00;;;5.94;71.80
50518;BME280;37075;44.084;2.962;2023-12-20T06:17:11;98317.38;;;5.93;71.77
50518;BME280;37075;44.084;2.962;2023-12-20T06:19:57;98319.19;;;6.03;71.25
50518;BME280;37075;44.084;2.962;2023-12-20T06:22:43;98326.72;;;6.06;71.43
50518;BME280;37075;44.084;2.962;2023-12-20T06:25:29;98316.69;;;6.06;71.29
50518;BME280;37075;44.084;2.962;2023-12-20T06:28:15;98315.00;;;6.10;71.28
50518;BME280;37075;44.084;2.962;2023-12-20T06:31:01;98330.81;;;6.03;71.46
50518;BME280;37075;44.084;2.962;2023-12-20T06:33:49;98335.00;;;6.14;71.25
50518;BME280;37075;44.084;2.962;2023-12-20T06:36:42;98336.03;;;6.18;71.25
50518;BME280;37075;44.084;2.962;2023-12-20T06:39:28;98334.06;;;6.24;71.13
50518;BME280;37075;44.084;2.962;2023-12-20T06:42:15;98333.31;;;6.18;71.36
50518;BME280;37075;44.084;2.962;2023-12-20T06:45:01;98344.09;;;6.24;71.35
50518;BME280;37075;44.084;2.962;2023-12-20T06:47:48;98344.91;;;6.24;71.38
50518;BME280;37075;44.084;2.962;2023-12-20T06:50:35;98352.81;;;6.21;71.61
50518;BME280;37075;44.084;2.962;2023-12-20T06:53:24;98362.50;;;6.27;71.39
50518;BME280;37075;44.084;2.962;2023-12-20T06:56:11;98366.25;;;6.31;71.48
50518;BME280;37075;44.084;2.962;2023-12-20T06:58:57;98363.25;;;6.32;71.41
50518;BME280;37075;44.084;2.962;2023-12-20T07:01:47;98370.50;;;6.37;71.40
50518;BME280;37075;44.084;2.962;2023-12-20T07:04:33;98374.28;;;6.36;72.06
50518;BME280;37075;44.084;2.962;2023-12-20T07:07:20;98366.63;;;6.43;71.70
50518;BME280;37075;44.084;2.962;2023-12-20T07:10:08;98374.16;;;6.46;71.82
50518;BME280;37075;44.084;2.962;2023-12-20T07:12:54;98378.94;;;6.54;71.83
50518;BME280;37075;44.084;2.962;2023-12-20T07:15:40;98379.69;;;6.60;71.72
50518;BME280;37075;44.084;2.962;2023-12-20T07:18:25;98381.53;;;6.64;71.54
50518;BME280;37075;44.084;2.962;2023-12-20T07:21:11;98375.50;;;6.67;71.47
50518;BME280;37075;44.084;2.962;2023-12-20T07:23:59;98394.72;;;6.71;71.44
50518;BME280;37075;44.084;2.962;2023-12-20T07:26:45;98394.72;;;6.71;71.64
50518;BME280;37075;44.084;2.962;2023-12-20T07:29:31;98385.06;;;6.84;71.58
50518;BME280;37075;44.084;2.962;2023-12-20T07:32:17;98407.09;;;6.96;71.46
50518;BME280;37075;44.084;2.962;2023-12-20T07:35:04;98408.88;;;7.05;71.27
50518;BME280;37075;44.084;2.962;2023-12-20T07:37:51;98408.50;;;7.12;71.10
50518;BME280;37075;44.084;2.962;2023-12-20T07:40:38;98410.34;;;7.17;71.07
50518;BME280;37075;44.084;2.962;2023-12-20T07:43:24;98411.06;;;7.22;71.06
50518;BME280;37075;44.084;2.962;2023-12-20T07:46:10;98410.47;;;7.25;70.89
50518;BME280;37075;44.084;2.962;2023-12-20T07:48:56;98423.69;;;7.32;70.90
50518;BME280;37075;44.084;2.962;2023-12-20T07:51:42;98412.25;;;7.35;70.67
50518;BME280;37075;44.084;2.962;2023-12-20T07:54:28;98425.72;;;7.40;70.62
50518;BME280;37075;44.084;2.962;2023-12-20T07:57:15;98439.81;;;7.42;70.45
50518;BME280;37075;44.084;2.962;2023-12-20T08:00:01;98436.78;;;7.43;70.39
50518;BME280;37075;44.084;2.962;2023-12-20T08:02:49;98429.75;;;7.42;69.83
50518;BME280;37075;44.084;2.962;2023-12-20T08:05:35;98419.91;;;7.47;69.74
50518;BME280;37075;44.084;2.962;2023-12-20T08:08:21;98421.81;;;7.46;69.72
50518;BME280;37075;44.084;2.962;2023-12-20T08:11:07;98428.34;;;7.45;69.38
50518;BME280;37075;44.084;2.962;2023-12-20T08:13:54;98440.31;;;7.44;69.46
50518;BME280;37075;44.084;2.962;2023-12-20T08:16:40;98453.88;;;7.44;69.28
50518;BME280;37075;44.084;2.962;2023-12-20T08:19:26;98452.56;;;7.41;69.18
50518;BME280;37075;44.084;2.962;2023-12-20T08:22:12;98455.28;;;7.41;69.08
50518;BME280;37075;44.084;2.962;2023-12-20T08:24:58;98459.91;;;7.41;68.96
50518;BME280;37075;44.084;2.962;2023-12-20T08:27:44;98453.44;;;7.37;68.86
50518;BME280;37075;44.084;2.962;2023-12-20T08:30:31;98461.16;;;7.30;69.14
50518;BME280;37075;44.084;2.962;2023-12-20T08:33:17;98466.81;;;7.33;69.09
50518;BME280;37075;44.084;2.962;2023-12-20T08:36:04;98463.50;;;7.36;68.77
50518;BME280;37075;44.084;2.962;2023-12-20T08:38:50;98463.78;;;7.35;68.65
50518;BME280;37075;44.084;2.962;2023-12-20T08:41:36;98472.53;;;7.32;68.48
50518;BME280;37075;44.084;2.962;2023-12-20T08:44:22;98468.75;;;7.28;68.22
50518;BME280;37075;44.084;2.962;2023-12-20T08:47:09;98480.50;;;7.23;68.09
50518;BME280;37075;44.084;2.962;2023-12-20T08:49:57;98475.44;;;7.17;68.00
50518;BME280;37075;44.084;2.962;2023-12-20T08:52:45;98485.28;;;7.13;67.84
50518;BME280;37075;44.084;2.962;2023-12-20T08:55:30;98470.97;;;7.07;67.84
50518;BME280;37075;44.084;2.962;2023-12-20T08:58:17;98490.81;;;7.02;67.81
50518;BME280;37075;44.084;2.962;2023-12-20T09:01:03;98494.19;;;6.94;67.89
50518;BME280;37075;44.084;2.962;2023-12-20T09:03:50;98487.72;;;6.90;68.15
50518;BME280;37075;44.084;2.962;2023-12-20T09:06:37;98495.34;;;6.88;68.04
50518;BME280;37075;44.084;2.962;2023-12-20T09:09:23;98499.44;;;6.86;68.09
50518;BME280;37075;44.084;2.962;2023-12-20T09:12:10;98491.09;;;6.82;68.11
50518;BME280;37075;44.084;2.962;2023-12-20T09:14:56;98494.09;;;6.80;68.18
50518;BME280;37075;44.084;2.962;2023-12-20T09:17:42;98503.03;;;6.81;68.40
50518;BME280;37075;44.084;2.962;2023-12-20T09:20:30;98499.44;;;6.86;68.82
50518;BME280;37075;44.084;2.962;2023-12-20T09:23:16;98491.75;;;6.93;69.03
50518;BME280;37075;44.084;2.962;2023-12-20T09:26:03;98498.22;;;6.97;69.10
50518;BME280;37075;44.084;2.962;2023-12-20T09:28:49;98497.63;;;7.00;69.25
50518;BME280;37075;44.084;2.962;2023-12-20T09:31:36;98487.53;;;7.05;69.61
50518;BME280;37075;44.084;2.962;2023-12-20T09:34:22;98490.69;;;7.13;70.35
50518;BME280;37075;44.084;2.962;2023-12-20T09:37:10;98476.16;;;7.22;69.81
50518;BME280;37075;44.084;2.962;2023-12-20T09:39:56;98478.16;;;7.35;69.96
50518;BME280;37075;44.084;2.962;2023-12-20T09:42:48;98482.34;;;7.47;68.85
50518;BME280;37075;44.084;2.962;2023-12-20T09:45:37;98479.41;;;7.62;68.41
50518;BME280;37075;44.084;2.962;2023-12-20T09:48:26;98479.44;;;7.76;68.32
50518;BME280;37075;44.084;2.962;2023-12-20T09:51:15;98480.81;;;7.92;67.78
50518;BME280;37075;44.084;2.962;2023-12-20T09:54:03;98498.84;;;8.01;67.13
50518;BME280;37075;44.084;2.962;2023-12-20T09:56:49;98484.09;;;8.08;67.19
50518;BME280;37075;44.084;2.962;2023-12-20T09:59:35;98488.13;;;8.24;66.08
50518;BME280;37075;44.084;2.962;2023-12-20T10:02:24;98480.91;;;8.33;65.89
50518;BME280;37075;44.084;2.962;2023-12-20T10:05:16;98480.53;;;8.40;65.32
50518;BME280;37075;44.084;2.962;2023-12-20T10:08:04;98491.22;;;8.50;64.52
50518;BME280;37075;44.084;2.962;2023-12-20T10:10:51;98486.19;;;8.57;64.95
50518;BME280;37075;44.084;2.962;2023-12-20T10:13:39;98493.84;;;8.69;64.07
50518;BME280;37075;44.084;2.962;2023-12-20T10:16:25;98497.16;;;8.79;63.36
50518;BME280;37075;44.084;2.962;2023-12-20T10:19:11;98501.13;;;8.87;62.33
50518;BME280;37075;44.084;2.962;2023-12-20T10:21:57;98494.94;;;8.95;61.96
50518;BME280;37075;44.084;2.962;2023-12-20T10:24:45;98492.00;;;9.05;62.10
50518;BME280;37075;44.084;2.962;2023-12-20T10:27:33;98492.72;;;9.11;62.10
50518;BME280;37075;44.084;2.962;2023-12-20T10:30:19;98484.13;;;9.17;60.84
50518;BME280;37075;44.084;2.962;2023-12-20T10:33:06;98485.31;;;9.25;60.68
50518;BME280;37075;44.084;2.962;2023-12-20T10:35:53;98490.84;;;9.34;60.75
50518;BME280;37075;44.084;2.962;2023-12-20T10:38:41;98492.38;;;9.40;60.95
50518;BME280;37075;44.084;2.962;2023-12-20T10:41:29;98495.59;;;9.42;60.17
50518;BME280;37075;44.084;2.962;2023-12-20T10:44:17;98500.09;;;9.46;59.99
50518;BME280;37075;44.084;2.962;2023-12-20T10:47:04;98487.47;;;9.50;60.03
50518;BME280;37075;44.084;2.962;2023-12-20T10:49:52;98510.88;;;9.51;59.63
50518;BME280;37075;44.084;2.962;2023-12-20T10:52:37;98497.75;;;9.53;59.27
50518;BME280;37075;44.084;2.962;2023-12-20T10:55:25;98512.19;;;9.54;59.13
50518;BME280;37075;44.084;2.962;2023-12-20T10:58:12;98508.03;;;9.56;59.33
50518;BME280;37075;44.084;2.962;2023-12-20T11:01:01;98498.94;;;9.61;59.99
50518;BME280;37075;44.084;2.962;2023-12-20T11:03:49;98512.84;;;9.59;60.16
50518;BME280;37075;44.084;2.962;2023-12-20T11:06:41;98519.50;;;9.67;59.87
50518;BME280;37075;44.084;2.962;2023-12-20T11:09:33;98511.53;;;9.71;59.59
50518;BME280;37075;44.084;2.962;2023-12-20T11:12:28;98521.50;;;9.75;58.93
50518;BME280;37075;44.084;2.962;2023-12-20T11:15:18;98501.00;;;9.78;59.12
50518;BME280;37075;44.084;2.962;2023-12-20T11:18:06;98517.22;;;9.83;58.63
50518;BME280;37075;44.084;2.962;2023-12-20T11:20:54;98528.78;;;9.88;58.62
50518;BME280;37075;44.084;2.962;2023-12-20T11:23:42;98529.88;;;10.01;58.38
50518;BME280;37075;44.084;2.962;2023-12-20T11:26:29;98530.22;;;10.08;58.01
50518;BME280;37075;44.084;2.962;2023-12-20T11:29:32;98523.47;;;10.06;58.59
50518;BME280;37075;44.084;2.962;2023-12-20T11:32:28;98541.44;;;10.07;58.35
50518;BME280;37075;44.084;2.962;2023-12-20T11:35:19;98526.38;;;10.09;58.48
50518;BME280;37075;44.084;2.962;2023-12-20T11:38:07;98533.84;;;10.17;58.56
50518;BME280;37075;44.084;2.962;2023-12-20T11:40:54;98527.38;;;10.13;58.59
50518;BME280;37075;44.084;2.962;2023-12-20T11:43:40;98534.88;;;10.08;58.30
50518;BME280;37075;44.084;2.962;2023-12-20T11:46:26;98535.50;;;10.05;58.64
50518;BME280;37075;44.084;2.962;2023-12-20T11:49:12;98522.63;;;9.97;58.91
50518;BME280;37075;44.084;2.962;2023-12-20T11:52:00;98520.38;;;9.99;58.73
50518;BME280;37075;44.084;2.962;2023-12-20T11:54:46;98509.31;;;9.95;59.01
50518;BME280;37075;44.084;2.962;2023-12-20T11:57:32;98512.97;;;9.91;59.20
50518;BME280;37075;44.084;2.962;2023-12-20T12:00:19;98523.06;;;9.90;59.52
50518;BME280;37075;44.084;2.962;2023-12-20T12:03:05;98532.03;;;9.91;59.15
50518;BME280;37075;44.084;2.962;2023-12-20T12:05:51;98546.25;;;9.87;58.91
50518;BME280;37075;44.084;2.962;2023-12-20T12:08:39;98536.16;;;9.88;59.32
50518;BME280;37075;44.084;2.962;2023-12-20T12:11:25;98537.69;;;9.94;59.03
50518;BME280;37075;44.084;2.962;2023-12-20T12:14:12;98535.06;;;9.89;58.81
50518;BME280;37075;44.084;2.962;2023-12-20T12:16:58;98525.56;;;9.86;59.04
50518;BME280;37075;44.084;2.962;2023-12-20T12:19:44;98530.66;;;9.79;59.50
50518;BME280;37075;44.084;2.962;2023-12-20T12:22:30;98529.78;;;9.70;58.97
50518;BME280;37075;44.084;2.962;2023-12-20T12:25:18;98538.09;;;9.65;59.19
50518;BME280;37075;44.084;2.962;2023-12-20T12:28:05;98528.09;;;9.61;59.36
50518;BME280;37075;44.084;2.962;2023-12-20T12:30:58;98532.22;;;9.58;59.66
50518;BME280;37075;44.084;2.962;2023-12-20T12:33:44;98539.19;;;9.64;59.70
50518;BME280;37075;44.084;2.962;2023-12-20T12:36:30;98519.53;;;9.53;58.93
50518;BME280;37075;44.084;2.962;2023-12-20T12:39:17;98511.81;;;9.47;59.21
50518;BME280;37075;44.084;2.962;2023-12-20T12:42:05;98506.47;;;9.42;59.38
50518;BME280;37075;44.084;2.962;2023-12-20T12:44:51;98502.75;;;9.38;59.70
50518;BME280;37075;44.084;2.962;2023-12-20T12:47:37;98525.03;;;9.26;59.03
50518;BME280;37075;44.084;2.962;2023-12-20T12:50:23;98509.13;;;9.19;59.29
50518;BME280;37075;44.084;2.962;2023-12-20T12:53:09;98517.28;;;9.19;59.37
50518;BME280;37075;44.084;2.962;2023-12-20T12:55:55;98511.25;;;9.22;59.03
50518;BME280;37075;44.084;2.962;2023-12-20T12:58:43;98509.75;;;9.16;58.56
50518;BME280;37075;44.084;2.962;2023-12-20T13:01:30;98514.19;;;9.12;58.71
50518;BME280;37075;44.084;2.962;2023-12-20T13:04:16;98521.63;;;9.20;58.93
50518;BME280;37075;44.084;2.962;2023-12-20T13:07:02;98509.50;;;9.26;58.67
50518;BME280;37075;44.084;2.962;2023-12-20T13:09:48;98505.88;;;9.31;57.37
50518;BME280;37075;44.084;2.962;2023-12-20T13:12:34;98483.59;;;9.29;57.52
50518;BME280;37075;44.084;2.962;2023-12-20T13:15:21;98497.72;;;9.31;57.02
50518;BME280;37075;44.084;2.962;2023-12-20T13:18:07;98488.53;;;9.41;57.32
50518;BME280;37075;44.084;2.962;2023-12-20T13:20:53;98496.34;;;9.56;56.60
50518;BME280;37075;44.084;2.962;2023-12-20T13:23:39;98485.94;;;9.58;54.99
50518;BME280;37075;44.084;2.962;2023-12-20T13:26:25;98477.75;;;9.58;54.96
50518;BME280;37075;44.084;2.962;2023-12-20T13:29:14;98477.34;;;9.65;54.94
50518;BME280;37075;44.084;2.962;2023-12-20T13:32:02;98478.09;;;9.79;54.97
50518;BME280;37075;44.084;2.962;2023-12-20T13:34:48;98478.94;;;9.88;54.26
50518;BME280;37075;44.084;2.962;2023-12-20T13:37:34;98492.56;;;9.88;53.24
50518;BME280;37075;44.084;2.962;2023-12-20T13:40:21;98475.69;;;9.77;53.46
50518;BME280;37075;44.084;2.962;2023-12-20T13:43:08;98469.91;;;9.79;53.25
50518;BME280;37075;44.084;2.962;2023-12-20T13:45:55;98492.03;;;9.77;53.00
50518;BME280;37075;44.084;2.962;2023-12-20T13:48:43;98466.34;;;9.70;53.40
50518;BME280;37075;44.084;2.962;2023-12-20T13:51:29;98457.84;;;9.71;53.85
50518;BME280;37075;44.084;2.962;2023-12-20T13:54:15;98454.25;;;9.84;53.75
50518;BME280;37075;44.084;2.962;2023-12-20T13:57:05;98455.22;;;9.88;53.08
50518;BME280;37075;44.084;2.962;2023-12-20T13:59:51;98455.84;;;9.85;52.28
50518;BME280;37075;44.084;2.962;2023-12-20T14:02:37;98452.13;;;9.81;53.34
50518;BME280;37075;44.084;2.962;2023-12-20T14:05:24;98458.97;;;9.93;52.28
50518;BME280;37075;44.084;2.962;2023-12-20T14:08:12;98457.84;;;9.94;52.99
50518;BME280;37075;44.084;2.962;2023-12-20T14:10:58;98484.78;;;9.95;52.36
50518;BME280;37075;44.084;2.962;2023-12-20T14:13:46;98478.75;;;9.84;52.42
50518;BME280;37075;44.084;2.962;2023-12-20T14:16:32;98476.84;;;9.85;52.44
50518;BME280;37075;44.084;2.962;2023-12-20T14:19:18;98476.97;;;9.80;52.24
50518;BME280;37075;44.084;2.962;2023-12-20T14:22:05;98481.69;;;9.66;51.72
50518;BME280;37075;44.084;2.962;2023-12-20T14:24:51;98521.28;;;9.49;51.85
50518;BME280;37075;44.084;2.962;2023-12-20T14:27:39;98506.50;;;9.28;52.38
50518;BME280;37075;44.084;2.962;2023-12-20T14:30:25;98482.09;;;9.23;52.49
50518;BME280;37075;44.084;2.962;2023-12-20T14:33:11;98495.91;;;9.26;52.94
50518;BME280;37075;44.084;2.962;2023-12-20T14:35:58;98518.00;;;9.25;52.52
50518;BME280;37075;44.084;2.962;2023-12-20T14:38:45;98505.81;;;9.22;53.08
50518;BME280;37075;44.084;2.962;2023-12-20T14:41:32;98506.00;;;9.26;53.02
50518;BME280;37075;44.084;2.962;2023-12-20T14:44:18;98515.34;;;9.34;52.92
50518;BME280;37075;44.084;2.962;2023-12-20T14:47:04;98498.91;;;9.39;53.08
50518;BME280;37075;44.084;2.962;2023-12-20T14:49:50;98508.09;;;9.43;52.40
50518;BME280;37075;44.084;2.962;2023-12-20T14:52:37;98511.41;;;9.40;52.32
50518;BME280;37075;44.084;2.962;2023-12-20T14:55:24;98520.41;;;9.40;52.18